Time;durP1;ratioP1;P1;durP2;ratioP2;P2;SDS_P1;SDS_P2;PMS_P1;PMS_P2;Temp;Humidity;BMP_temperature;BMP_pressure;BME280_temperature;BME280_humidity;BME280_pressure;Samples;Min_cycle;Max_cycle;Signal;HPM_P1;HPM_P2
2022/04/03 00:02:38;;;;;;;8.50;2.15;;;;;;;;;;10367740;28;20026;-62
2022/04/03 00:07:39;;;;;;;7.18;1.90;;;;;;;;;;10366863;28;20038;-61
2022/04/03 00:12:40;;;;;;;4.80;1.75;;;;;;;;;;10367341;28;20037;-61
2022/04/03 00:17:41;;;;;;;3.88;2.35;;;;;;;;;;10366904;28;20048;-60
2022/04/03 00:22:48;;;;;;;4.18;1.60;;;;;;;;;;10366710;28;20488;-61
2022/04/03 00:27:48;;;;;;;9.10;1.60;;;;;;;;;;10366847;28;20647;-58
2022/04/03 00:32:49;;;;;;;4.05;2.08;;;;;;;;;;10367035;28;20276;-62
2022/04/03 00:37:49;;;;;;;2.92;1.90;;;;;;;;;;10367313;28;20092;-58
2022/04/03 00:42:50;;;;;;;5.57;2.20;;;;;;;;;;10367627;28;20026;-62
2022/04/03 00:47:53;;;;;;;4.30;1.92;;;;;;;;;;10379785;28;20041;-62
2022/04/03 00:52:54;;;;;;;3.08;1.45;;;;;;;;;;10366856;28;20488;-58
2022/04/03 00:57:57;;;;;;;3.67;2.15;;;;;;;;;;10366476;28;20041;-62
2022/04/03 01:02:58;;;;;;;4.03;1.80;;;;;;;;;;10366965;28;20170;-61
2022/04/03 01:07:58;;;;;;;4.13;1.90;;;;;;;;;;10372221;28;20173;-60
2022/04/03 01:12:59;;;;;;;4.13;2.13;;;;;;;;;;10374263;28;20029;-62
2022/04/03 01:17:59;;;;;;;5.45;1.58;;;;;;;;;;10373403;28;20045;-61
2022/04/03 01:23:00;;;;;;;10.65;1.70;;;;;;;;;;10372836;28;20076;-61
2022/04/03 01:28:01;;;;;;;2.58;1.75;;;;;;;;;;10379633;28;20029;-62
2022/04/03 01:33:02;;;;;;;4.85;1.40;;;;;;;;;;10373086;28;20084;-61
2022/04/03 01:38:02;;;;;;;3.22;1.50;;;;;;;;;;10372715;28;20061;-62
2022/04/03 01:43:04;;;;;;;3.08;1.60;;;;;;;;;;10373173;28;20022;-61
2022/04/03 01:48:07;;;;;;;2.28;1.67;;;;;;;;;;10373482;28;20113;-59
2022/04/03 01:53:07;;;;;;;2.30;1.80;;;;;;;;;;10372573;28;20358;-49
2022/04/03 01:58:09;;;;;;;3.05;1.80;;;;;;;;;;10372093;28;20034;-51
2022/04/03 02:03:10;;;;;;;4.07;1.50;;;;;;;;;;10372535;28;20061;-50
2022/04/03 02:08:12;;;;;;;2.55;1.80;;;;;;;;;;10372287;28;20044;-49
2022/04/03 02:13:13;;;;;;;4.32;1.65;;;;;;;;;;10371117;28;20472;-49
2022/04/03 02:18:13;;;;;;;2.60;1.58;;;;;;;;;;10370959;28;20112;-48
2022/04/03 02:23:14;;;;;;;3.38;1.40;;;;;;;;;;10371557;28;20050;-47
2022/04/03 02:28:15;;;;;;;3.47;1.40;;;;;;;;;;10371042;28;20025;-50
2022/04/03 02:33:15;;;;;;;3.75;1.77;;;;;;;;;;10371156;28;20322;-46
2022/04/03 02:38:17;;;;;;;3.75;1.30;;;;;;;;;;10370296;28;20092;-47
2022/04/03 02:43:18;;;;;;;4.60;1.60;;;;;;;;;;10370828;28;20026;-46
2022/04/03 02:48:18;;;;;;;4.38;1.55;;;;;;;;;;10370290;28;20492;-49
2022/04/03 02:53:19;;;;;;;2.67;1.67;;;;;;;;;;10370714;28;20362;-59
2022/04/03 02:58:20;;;;;;;3.83;1.45;;;;;;;;;;10376102;28;20034;-60
2022/04/03 03:03:20;;;;;;;1.75;1.33;;;;;;;;;;10411088;28;20030;-60
2022/04/03 03:08:21;;;;;;;5.80;1.20;;;;;;;;;;10406714;28;20076;-60
2022/04/03 03:13:21;;;;;;;3.03;1.50;;;;;;;;;;10369492;28;20477;-59
2022/04/03 03:18:22;;;;;;;2.17;1.23;;;;;;;;;;10369181;28;20041;-60
2022/04/03 03:23:23;;;;;;;4.32;1.35;;;;;;;;;;10368844;28;20040;-61
2022/04/03 03:28:23;;;;;;;3.08;1.27;;;;;;;;;;10368389;28;20030;-61
2022/04/03 03:33:24;;;;;;;1.90;1.23;;;;;;;;;;10368896;28;20030;-60
2022/04/03 03:38:25;;;;;;;1.67;1.30;;;;;;;;;;10368271;28;20407;-59
2022/04/03 03:43:25;;;;;;;1.77;1.10;;;;;;;;;;10367359;28;20045;-58
2022/04/03 03:48:26;;;;;;;3.17;1.30;;;;;;;;;;10368120;28;20029;-61
2022/04/03 03:53:27;;;;;;;2.33;1.30;;;;;;;;;;10368255;28;20029;-62
2022/04/03 03:58:27;;;;;;;1.77;1.20;;;;;;;;;;10367509;28;20037;-60
2022/04/03 04:03:28;;;;;;;1.42;1.20;;;;;;;;;;10367890;28;20026;-61
2022/04/03 04:08:29;;;;;;;2.67;1.20;;;;;;;;;;10367460;28;20033;-58
2022/04/03 04:13:29;;;;;;;1.30;1.20;;;;;;;;;;10367649;28;20037;-61
2022/04/03 04:18:30;;;;;;;2.85;1.35;;;;;;;;;;10367424;28;20045;-58
2022/04/03 04:23:31;;;;;;;1.45;1.20;;;;;;;;;;10367158;28;20113;-62
2022/04/03 04:28:31;;;;;;;1.00;0.98;;;;;;;;;;10367432;28;20076;-60
2022/04/03 04:33:32;;;;;;;1.20;1.08;;;;;;;;;;10367123;28;20034;-47
2022/04/03 04:38:33;;;;;;;4.00;1.20;;;;;;;;;;10366812;28;20029;-50
2022/04/03 04:43:33;;;;;;;6.55;1.63;;;;;;;;;;10375504;28;20099;-47
2022/04/03 04:48:34;;;;;;;4.28;1.27;;;;;;;;;;10374779;28;20532;-49
2022/04/03 04:53:35;;;;;;;4.68;1.33;;;;;;;;;;10374543;28;20061;-48
2022/04/03 04:58:36;;;;;;;9.15;1.30;;;;;;;;;;10374723;28;20022;-51
2022/04/03 05:03:36;;;;;;;11.70;1.30;;;;;;;;;;10374579;28;20369;-46
2022/04/03 05:08:37;;;;;;;11.30;1.50;;;;;;;;;;10374288;28;20119;-50
2022/04/03 05:13:38;;;;;;;6.55;1.30;;;;;;;;;;10366924;28;20034;-65
2022/04/03 05:18:39;;;;;;;10.85;1.92;;;;;;;;;;10365419;28;20046;-65
2022/04/03 05:23:41;;;;;;;19.30;1.63;;;;;;;;;;10373793;28;20061;-61
2022/04/03 05:28:43;;;;;;;5.28;1.58;;;;;;;;;;10371547;28;20141;-63
2022/04/03 05:33:43;;;;;;;4.45;1.73;;;;;;;;;;10371382;28;20421;-65
2022/04/03 05:38:44;;;;;;;5.85;1.70;;;;;;;;;;10369783;28;20030;-63
2022/04/03 05:43:45;;;;;;;3.80;2.20;;;;;;;;;;10370632;28;20168;-54
2022/04/03 05:48:45;;;;;;;3.55;2.33;;;;;;;;;;10370774;28;20537;-50
2022/04/03 05:53:46;;;;;;;8.65;2.10;;;;;;;;;;10371673;28;20026;-45
2022/04/03 05:58:46;;;;;;;10.65;1.92;;;;;;;;;;10370038;28;20040;-49
2022/04/03 06:03:47;;;;;;;7.85;2.15;;;;;;;;;;10370230;28;20022;-48
2022/04/03 06:08:48;;;;;;;8.85;1.88;;;;;;;;;;10372118;28;20492;-48
2022/04/03 06:13:49;;;;;;;2.45;1.60;;;;;;;;;;10371647;28;20413;-47
2022/04/03 06:18:49;;;;;;;2.78;1.65;;;;;;;;;;10371076;28;20061;-49
2022/04/03 06:23:50;;;;;;;2.55;1.60;;;;;;;;;;10371565;28;20082;-48
2022/04/03 06:28:51;;;;;;;4.60;1.45;;;;;;;;;;10370916;28;20034;-47
2022/04/03 06:33:51;;;;;;;4.63;2.00;;;;;;;;;;10370401;28;20033;-46
2022/04/03 06:38:52;;;;;;;7.95;1.65;;;;;;;;;;10370418;28;20497;-50
2022/04/03 06:43:53;;;;;;;2.13;1.60;;;;;;;;;;10369886;28;20555;-58
2022/04/03 06:48:53;;;;;;;3.17;1.73;;;;;;;;;;10368905;28;20049;-59
2022/04/03 06:53:54;;;;;;;1.60;1.50;;;;;;;;;;10367738;28;20037;-59
2022/04/03 06:58:54;;;;;;;2.90;1.70;;;;;;;;;;10367896;28;20034;-60
2022/04/03 07:03:55;;;;;;;5.45;1.75;;;;;;;;;;10366845;28;20045;-60
2022/04/03 07:08:56;;;;;;;3.00;1.60;;;;;;;;;;10367347;28;20508;-61
2022/04/03 07:13:56;;;;;;;3.90;1.75;;;;;;;;;;10367128;28;20044;-60
2022/04/03 07:18:57;;;;;;;6.13;2.05;;;;;;;;;;10366765;28;20042;-51
2022/04/03 07:23:58;;;;;;;3.63;1.52;;;;;;;;;;10366925;28;20037;-53
2022/04/03 07:28:59;;;;;;;5.13;1.75;;;;;;;;;;10366866;28;20504;-49
2022/04/03 07:33:59;;;;;;;21.38;2.45;;;;;;;;;;10366601;28;20022;-50
2022/04/03 07:39:00;;;;;;;9.77;2.03;;;;;;;;;;10366713;28;20038;-48
2022/04/03 07:44:01;;;;;;;8.00;1.90;;;;;;;;;;10366050;28;20033;-48
2022/04/03 07:49:03;;;;;;;7.45;1.90;;;;;;;;;;10366454;28;20046;-50
2022/04/03 07:54:04;;;;;;;14.13;2.10;;;;;;;;;;10367459;28;20045;-48
2022/04/03 07:59:06;;;;;;;9.00;1.88;;;;;;;;;;10366125;28;20026;-47
2022/04/03 08:04:06;;;;;;;6.25;1.50;;;;;;;;;;10364725;28;20045;-47
2022/04/03 08:09:07;;;;;;;3.88;1.63;;;;;;;;;;10363713;28;20061;-48
2022/04/03 08:14:08;;;;;;;4.63;1.77;;;;;;;;;;10364891;28;20029;-51
2022/04/03 08:19:09;;;;;;;5.20;1.50;;;;;;;;;;10362693;28;20533;-51
2022/04/03 08:24:10;;;;;;;7.40;1.80;;;;;;;;;;10364993;28;20047;-49
2022/04/03 08:29:10;;;;;;;2.88;1.58;;;;;;;;;;10365290;28;20029;-50
2022/04/03 08:34:11;;;;;;;3.38;1.73;;;;;;;;;;10365138;28;20378;-52
2022/04/03 08:39:12;;;;;;;3.38;1.80;;;;;;;;;;10366529;28;20432;-47
2022/04/03 08:44:12;;;;;;;11.77;1.80;;;;;;;;;;10379134;28;20385;-56
2022/04/03 08:49:14;;;;;;;5.50;1.88;;;;;;;;;;10373207;28;20029;-48
2022/04/03 08:54:16;;;;;;;3.13;1.60;;;;;;;;;;10372425;28;20029;-50
2022/04/03 08:59:17;;;;;;;7.72;1.75;;;;;;;;;;10389457;28;20055;-49
2022/04/03 09:04:20;;;;;;;3.53;1.65;;;;;;;;;;10394306;28;20026;-51
2022/04/03 09:09:23;;;;;;;4.05;1.58;;;;;;;;;;10366561;28;20527;-50
2022/04/03 09:14:23;;;;;;;3.50;1.70;;;;;;;;;;10366671;28;20026;-49
2022/04/03 09:19:34;;;;;;;8.20;2.03;;;;;;;;;;10366313;28;20054;-47
2022/04/03 09:24:47;;;;;;;3.38;1.65;;;;;;;;;;10366395;28;20109;-48
2022/04/03 09:29:59;;;;;;;3.13;1.77;;;;;;;;;;10374430;28;20041;-48
2022/04/03 09:35:00;;;;;;;5.90;1.73;;;;;;;;;;10373888;28;20041;-47
2022/04/03 09:40:03;;;;;;;3.35;1.40;;;;;;;;;;10373320;28;20469;-47
2022/04/03 09:45:04;;;;;;;2.10;1.30;;;;;;;;;;10372860;28;20520;-47
2022/04/03 09:50:07;;;;;;;2.15;1.40;;;;;;;;;;10372063;28;20030;-49
2022/04/03 09:55:15;;;;;;;4.82;1.50;;;;;;;;;;10372252;28;20038;-50
2022/04/03 10:00:41;;;;;;;3.53;1.60;;;;;;;;;;10372923;28;20030;-47
2022/04/03 10:05:42;;;;;;;5.28;1.65;;;;;;;;;;10372601;28;20038;-47
2022/04/03 10:10:45;;;;;;;1.60;1.23;;;;;;;;;;10372215;28;20457;-47
2022/04/03 10:15:45;;;;;;;2.05;1.20;;;;;;;;;;10371579;28;20120;-47
2022/04/03 10:20:47;;;;;;;3.80;1.40;;;;;;;;;;10371587;28;20054;-47
2022/04/03 10:25:50;;;;;;;2.05;1.20;;;;;;;;;;10370659;28;20444;-47
2022/04/03 10:31:07;;;;;;;2.78;1.35;;;;;;;;;;10370618;28;20033;-50
2022/04/03 10:36:10;;;;;;;4.30;1.50;;;;;;;;;;10370909;28;20508;-50
2022/04/03 10:41:37;;;;;;;3.72;1.60;;;;;;;;;;10369624;28;20041;-49
2022/04/03 10:47:02;;;;;;;1.80;1.45;;;;;;;;;;10368910;28;20022;-48
2022/04/03 10:52:22;;;;;;;1.50;1.40;;;;;;;;;;10368599;28;20120;-47
2022/04/03 10:57:36;;;;;;;4.18;1.55;;;;;;;;;;10371651;28;20037;-51
2022/04/03 11:02:36;;;;;;;1.85;1.30;;;;;;;;;;10378119;28;20026;-48
2022/04/03 11:07:37;;;;;;;1.90;1.20;;;;;;;;;;10372602;28;20029;-47
2022/04/03 11:12:54;;;;;;;2.13;1.42;;;;;;;;;;10398915;28;20088;-50
2022/04/03 11:17:54;;;;;;;8.35;1.40;;;;;;;;;;10367857;28;20065;-49
2022/04/03 11:22:57;;;;;;;4.38;1.33;;;;;;;;;;10368404;28;20335;-48
2022/04/03 11:27:58;;;;;;;1.45;1.35;;;;;;;;;;10367822;28;20055;-49
2022/04/03 11:33:00;;;;;;;1.52;1.17;;;;;;;;;;10367097;28;20117;-48
2022/04/03 11:38:00;;;;;;;2.60;1.30;;;;;;;;;;10365062;28;20088;-51
2022/04/03 11:43:12;;;;;;;4.45;1.60;;;;;;;;;;10366988;28;20076;-49
2022/04/03 11:48:22;;;;;;;3.45;1.50;;;;;;;;;;10366302;28;20057;-50
2022/04/03 11:53:23;;;;;;;6.75;1.27;;;;;;;;;;10364103;28;20361;-50
2022/04/03 11:58:32;;;;;;;2.53;1.52;;;;;;;;;;10366198;28;20091;-50
2022/04/03 12:03:35;;;;;;;5.78;1.30;;;;;;;;;;10360391;28;20424;-48
2022/04/03 12:08:38;;;;;;;4.15;1.40;;;;;;;;;;10363055;28;20018;-50
2022/04/03 12:13:38;;;;;;;1.92;1.38;;;;;;;;;;10365552;28;20497;-48
2022/04/03 12:18:59;;;;;;;7.60;1.58;;;;;;;;;;10364961;28;20049;-53
2022/04/03 12:24:12;;;;;;;3.70;1.38;;;;;;;;;;10365527;28;20025;-48
2022/04/03 12:29:13;;;;;;;2.65;1.73;;;;;;;;;;10366114;28;20380;-50
2022/04/03 12:34:16;;;;;;;4.93;1.63;;;;;;;;;;10371084;28;20069;-51
2022/04/03 12:39:37;;;;;;;3.95;1.50;;;;;;;;;;10359440;28;20053;-50
2022/04/03 12:45:17;;;;;;;4.15;2.13;;;;;;;;;;10357577;28;20025;-54
2022/04/03 12:50:21;;;;;;;2.08;1.40;;;;;;;;;;10363370;28;20382;-54
2022/04/03 12:55:24;;;;;;;6.50;1.58;;;;;;;;;;10366471;28;20030;-59
2022/04/03 13:00:25;;;;;;;4.32;1.58;;;;;;;;;;10368583;28;20033;-62
2022/04/03 13:05:32;;;;;;;2.08;1.60;;;;;;;;;;10374797;28;20493;-61
2022/04/03 13:10:33;;;;;;;3.33;1.75;;;;;;;;;;10374621;28;20370;-62
2022/04/03 13:15:33;;;;;;;4.65;2.10;;;;;;;;;;10374212;28;20029;-47
2022/04/03 13:20:34;;;;;;;10.40;2.10;;;;;;;;;;10373969;28;20260;-48
2022/04/03 13:25:34;;;;;;;11.07;2.50;;;;;;;;;;10373367;28;20099;-61
2022/04/03 13:30:35;;;;;;;10.63;2.33;;;;;;;;;;10373651;28;20033;-60
2022/04/03 13:35:38;;;;;;;7.32;1.92;;;;;;;;;;10373256;28;20038;-49
2022/04/03 13:40:40;;;;;;;6.47;1.75;;;;;;;;;;10373697;28;20388;-46
2022/04/03 13:45:58;;;;;;;9.20;2.63;;;;;;;;;;10372605;28;20261;-46
2022/04/03 13:51:00;;;;;;;4.78;1.90;;;;;;;;;;10373188;28;20026;-45
2022/04/03 13:56:02;;;;;;;5.63;1.98;;;;;;;;;;10371747;28;20061;-47
2022/04/03 14:01:06;;;;;;;2.65;1.70;;;;;;;;;;10372670;28;20037;-45
2022/04/03 14:06:06;;;;;;;10.23;1.88;;;;;;;;;;10372184;28;20041;-46
2022/04/03 14:11:07;;;;;;;5.65;1.95;;;;;;;;;;10370460;28;20044;-45
2022/04/03 14:16:08;;;;;;;7.13;1.88;;;;;;;;;;10371804;28;20042;-46
2022/04/03 14:21:09;;;;;;;5.93;2.08;;;;;;;;;;10369989;28;20050;-48
2022/04/03 14:26:09;;;;;;;2.33;1.55;;;;;;;;;;10368345;28;20378;-50
2022/04/03 14:31:10;;;;;;;6.63;1.90;;;;;;;;;;10370466;28;20022;-48
2022/04/03 14:36:11;;;;;;;5.38;2.08;;;;;;;;;;10370968;28;20048;-45
2022/04/03 14:41:13;;;;;;;5.82;1.60;;;;;;;;;;10370621;28;20038;-48
2022/04/03 14:46:14;;;;;;;2.28;1.80;;;;;;;;;;10370733;28;20033;-48
2022/04/03 14:51:15;;;;;;;6.53;1.90;;;;;;;;;;10370279;28;20029;-48
2022/04/03 14:56:17;;;;;;;3.35;1.67;;;;;;;;;;10370122;28;20050;-48
2022/04/03 15:01:17;;;;;;;5.28;2.30;;;;;;;;;;10369361;28;20057;-48
2022/04/03 15:06:18;;;;;;;2.63;1.58;;;;;;;;;;10370008;28;20115;-48
2022/04/03 15:11:19;;;;;;;4.13;2.15;;;;;;;;;;10368496;28;20502;-46
2022/04/03 15:16:19;;;;;;;4.10;1.85;;;;;;;;;;10366989;28;20387;-49
2022/04/03 15:21:22;;;;;;;2.85;1.63;;;;;;;;;;10366071;28;20041;-49
2022/04/03 15:26:22;;;;;;;10.13;2.28;;;;;;;;;;10365421;28;20428;-48
2022/04/03 15:31:23;;;;;;;11.65;2.65;;;;;;;;;;10367887;28;20096;-46
2022/04/03 15:36:24;;;;;;;14.95;3.38;;;;;;;;;;10368893;28;20030;-52
2022/04/03 15:41:25;;;;;;;7.97;2.47;;;;;;;;;;10385158;28;20512;-53
2022/04/03 15:46:25;;;;;;;8.82;2.35;;;;;;;;;;10368005;28;20057;-54
2022/04/03 15:51:26;;;;;;;13.20;2.80;;;;;;;;;;10367973;28;20060;-50
2022/04/03 15:56:28;;;;;;;8.60;2.92;;;;;;;;;;10366432;28;20022;-49
2022/04/03 16:01:29;;;;;;;10.57;2.47;;;;;;;;;;10366300;28;20041;-48
2022/04/03 16:06:29;;;;;;;7.25;2.50;;;;;;;;;;10367553;28;20034;-51
2022/04/03 16:11:30;;;;;;;9.05;1.98;;;;;;;;;;10367489;28;20022;-51
2022/04/03 16:16:31;;;;;;;5.95;1.95;;;;;;;;;;10365704;28;20113;-48
2022/04/03 16:21:33;;;;;;;5.53;2.75;;;;;;;;;;10366256;28;20107;-48
2022/04/03 16:26:33;;;;;;;6.07;2.85;;;;;;;;;;10366674;28;20363;-47
2022/04/03 16:31:34;;;;;;;4.78;2.00;;;;;;;;;;10366071;28;20038;-47
2022/04/03 16:36:36;;;;;;;5.93;2.00;;;;;;;;;;10365806;28;20509;-50
2022/04/03 16:41:36;;;;;;;12.13;2.97;;;;;;;;;;10374660;28;20088;-49
2022/04/03 16:46:37;;;;;;;13.32;2.47;;;;;;;;;;10374618;28;20456;-50
2022/04/03 16:51:39;;;;;;;8.70;2.13;;;;;;;;;;10373263;28;20033;-48
2022/04/03 16:56:40;;;;;;;5.07;2.22;;;;;;;;;;10372503;28;20036;-47
2022/04/03 17:01:41;;;;;;;3.67;2.10;;;;;;;;;;10366020;28;20386;-50
2022/04/03 17:06:42;;;;;;;8.90;2.13;;;;;;;;;;10373264;28;20129;-48
2022/04/03 17:11:42;;;;;;;4.53;1.77;;;;;;;;;;10400260;28;20025;-50
2022/04/03 17:16:43;;;;;;;4.57;2.00;;;;;;;;;;10368022;28;20038;-47
2022/04/03 17:21:43;;;;;;;14.48;3.10;;;;;;;;;;10369120;28;20083;-64
2022/04/03 17:26:45;;;;;;;14.63;2.47;;;;;;;;;;10365118;28;20449;-57
2022/04/03 17:31:46;;;;;;;17.25;2.90;;;;;;;;;;10368983;28;20108;-57
2022/04/03 17:36:47;;;;;;;8.68;2.85;;;;;;;;;;10371655;28;20214;-58
2022/04/03 17:41:49;;;;;;;6.80;2.30;;;;;;;;;;10371098;28;20026;-47
2022/04/03 17:46:52;;;;;;;15.20;2.70;;;;;;;;;;10371922;28;20026;-47
2022/04/03 17:51:53;;;;;;;34.00;3.80;;;;;;;;;;10372269;28;20208;-46
2022/04/03 17:56:54;;;;;;;7.43;2.58;;;;;;;;;;10371888;28;20057;-46
2022/04/03 18:01:59;;;;;;;12.68;2.65;;;;;;;;;;10372158;28;20088;-46
2022/04/03 18:07:00;;;;;;;9.77;2.75;;;;;;;;;;10372129;28;20041;-46
2022/04/03 18:12:02;;;;;;;11.38;2.60;;;;;;;;;;10372292;28;20025;-47
2022/04/03 18:17:03;;;;;;;9.32;2.60;;;;;;;;;;10371002;28;20398;-48
2022/04/03 18:22:04;;;;;;;10.48;2.60;;;;;;;;;;10371690;28;20278;-46
2022/04/03 18:27:09;;;;;;;12.98;2.70;;;;;;;;;;10371787;28;20136;-47
2022/04/03 18:32:09;;;;;;;16.08;2.45;;;;;;;;;;10369150;28;20030;-48
2022/04/03 18:37:10;;;;;;;6.97;2.13;;;;;;;;;;10364530;28;20022;-49
2022/04/03 18:42:11;;;;;;;16.08;2.63;;;;;;;;;;10368561;28;20061;-48
2022/04/03 18:47:12;;;;;;;13.02;2.65;;;;;;;;;;10365718;28;20044;-50
2022/04/03 18:52:34;;;;;;;6.07;2.20;;;;;;;;;;10363139;28;20038;-47
2022/04/03 18:57:35;;;;;;;13.57;2.80;;;;;;;;;;10317281;28;20081;-48
2022/04/03 19:02:35;;;;;;;7.43;2.35;;;;;;;;;;10318060;28;20141;-49
2022/04/03 19:07:36;;;;;;;7.78;2.50;;;;;;;;;;10319905;28;20446;-50
2022/04/03 19:12:39;;;;;;;5.50;2.30;;;;;;;;;;10322910;28;20080;-50
2022/04/03 19:17:40;;;;;;;7.75;2.40;;;;;;;;;;10318157;28;20550;-47
2022/04/03 19:22:44;;;;;;;5.03;2.28;;;;;;;;;;10322361;28;20046;-47
2022/04/03 19:27:47;;;;;;;6.38;2.33;;;;;;;;;;10293660;28;20042;-48
2022/04/03 19:32:48;;;;;;;6.75;2.42;;;;;;;;;;10332269;28;20497;-47
2022/04/03 19:37:49;;;;;;;5.93;2.20;;;;;;;;;;10353312;28;20948;-47
2022/04/03 19:42:49;;;;;;;9.27;2.33;;;;;;;;;;10358975;28;20105;-47
2022/04/03 19:47:50;;;;;;;7.68;2.25;;;;;;;;;;10362818;28;20030;-46
2022/04/03 19:52:51;;;;;;;10.98;2.75;;;;;;;;;;10364326;28;20026;-47
2022/04/03 19:57:54;;;;;;;11.52;2.08;;;;;;;;;;10356329;23;20065;-64
2022/04/03 20:02:55;;;;;;;9.13;2.30;;;;;;;;;;10319053;28;20058;-66
2022/04/03 20:07:56;;;;;;;8.07;2.08;;;;;;;;;;10298398;28;20039;-66
2022/04/03 20:12:57;;;;;;;6.57;2.15;;;;;;;;;;10294793;28;20035;-67
2022/04/03 20:17:57;;;;;;;6.72;1.88;;;;;;;;;;10257902;28;20031;-67
2022/04/03 20:22:59;;;;;;;11.73;2.38;;;;;;;;;;10287204;28;20051;-68
2022/04/03 20:28:00;;;;;;;7.50;2.72;;;;;;;;;;10298168;28;20034;-67
2022/04/03 20:33:01;;;;;;;5.30;2.47;;;;;;;;;;10295709;28;20035;-67
2022/04/03 20:38:02;;;;;;;10.80;3.00;;;;;;;;;;10283032;28;20164;-66
2022/04/03 20:43:03;;;;;;;20.63;2.80;;;;;;;;;;10291787;28;20412;-67
2022/04/03 20:48:06;;;;;;;30.02;2.95;;;;;;;;;;10278598;28;20030;-62
2022/04/03 20:53:07;;;;;;;19.45;3.45;;;;;;;;;;10279361;28;20103;-63
2022/04/03 20:58:08;;;;;;;13.63;2.50;;;;;;;;;;10283221;28;20384;-62
2022/04/03 21:03:09;;;;;;;12.55;2.95;;;;;;;;;;10285208;28;20078;-61
2022/04/03 21:08:10;;;;;;;8.27;2.88;;;;;;;;;;10251660;28;20122;-64
2022/04/03 21:13:10;;;;;;;9.98;3.05;;;;;;;;;;10246229;28;20030;-63
2022/04/03 21:18:11;;;;;;;13.60;3.25;;;;;;;;;;10255869;28;20049;-64
2022/04/03 21:23:13;;;;;;;16.30;3.10;;;;;;;;;;10262069;28;20512;-64
2022/04/03 21:28:14;;;;;;;4.25;2.30;;;;;;;;;;10292958;28;20027;-64
2022/04/03 21:33:15;;;;;;;10.35;2.42;;;;;;;;;;10287242;28;20482;-64
2022/04/03 21:38:16;;;;;;;11.27;2.97;;;;;;;;;;10290021;28;20027;-63
2022/04/03 21:43:17;;;;;;;4.43;2.30;;;;;;;;;;10287432;28;20030;-64
2022/04/03 21:48:20;;;;;;;9.38;2.40;;;;;;;;;;10271128;28;20479;-64
2022/04/03 21:53:21;;;;;;;9.65;2.58;;;;;;;;;;10267867;28;20045;-62
2022/04/03 21:58:21;;;;;;;9.57;2.20;;;;;;;;;;10269970;28;20071;-63
2022/04/03 22:03:22;;;;;;;20.88;2.40;;;;;;;;;;10279443;28;20443;-64
2022/04/03 22:08:23;;;;;;;4.47;1.92;;;;;;;;;;10288909;28;20505;-63
2022/04/03 22:13:24;;;;;;;5.00;2.08;;;;;;;;;;10282448;28;20031;-64
2022/04/03 22:18:25;;;;;;;7.75;2.20;;;;;;;;;;10261215;28;20026;-68
2022/04/03 22:23:26;;;;;;;9.35;2.60;;;;;;;;;;10285064;28;20034;-68
2022/04/03 22:28:26;;;;;;;5.43;2.13;;;;;;;;;;10263969;28;20026;-70
2022/04/03 22:33:27;;;;;;;5.32;2.05;;;;;;;;;;10285554;28;20033;-67
2022/04/03 22:38:27;;;;;;;3.22;2.17;;;;;;;;;;10252571;28;20417;-70
2022/04/03 22:43:28;;;;;;;8.95;1.98;;;;;;;;;;10324290;28;20085;-69
2022/04/03 22:48:29;;;;;;;8.82;1.95;;;;;;;;;;10290149;28;20382;-70
2022/04/03 22:53:30;;;;;;;6.97;2.20;;;;;;;;;;10310799;28;20031;-70
2022/04/03 22:58:31;;;;;;;3.75;2.10;;;;;;;;;;10284727;28;20458;-69
2022/04/03 23:03:31;;;;;;;3.35;1.73;;;;;;;;;;10286792;28;20114;-71
2022/04/03 23:08:32;;;;;;;5.05;2.05;;;;;;;;;;10263653;28;20139;-67
2022/04/03 23:13:33;;;;;;;5.43;2.28;;;;;;;;;;10251498;28;20123;-68
2022/04/03 23:18:34;;;;;;;5.60;1.92;;;;;;;;;;10299574;28;20113;-65
2022/04/03 23:23:34;;;;;;;4.47;2.05;;;;;;;;;;10282352;28;20023;-67
2022/04/03 23:28:35;;;;;;;12.85;2.17;;;;;;;;;;10254190;28;20019;-65
2022/04/03 23:33:35;;;;;;;3.35;1.90;;;;;;;;;;10261304;28;20513;-66
2022/04/03 23:38:36;;;;;;;5.65;1.92;;;;;;;;;;10253384;28;20098;-65
2022/04/03 23:43:37;;;;;;;2.92;2.00;;;;;;;;;;10272491;28;20045;-63
2022/04/03 23:48:37;;;;;;;3.70;1.70;;;;;;;;;;10275047;28;20078;-63
2022/04/03 23:53:38;;;;;;;3.15;1.80;;;;;;;;;;10256829;28;20027;-63
2022/04/03 23:58:38;;;;;;;4.55;1.95;;;;;;;;;;10292616;28;20050;-63
